Time;durP1;ratioP1;P1;durP2;ratioP2;P2;SDS_P1;SDS_P2;PMS_P1;PMS_P2;Temp;Humidity;BMP_temperature;BMP_pressure;BME280_temperature;BME280_humidity;BME280_pressure;Samples;Min_cycle;Max_cycle;Signal;HPM_P1;HPM_P2
2021/03/09 00:02:14;;;;;;;77.53;32.05;;;;;;;5.00;100.00;101520.03;4908551;28;20530;-71
2021/03/09 00:04:40;;;;;;;86.65;33.92;;;;;;;5.02;100.00;101518.19;4942971;28;20106;-71
2021/03/09 00:07:05;;;;;;;82.68;33.83;;;;;;;5.04;100.00;101521.69;4946771;28;20038;-71
2021/03/09 00:09:30;;;;;;;84.40;34.60;;;;;;;5.04;100.00;101521.69;4944623;29;20043;-72
2021/03/09 00:11:56;;;;;;;83.10;33.55;;;;;;;4.99;100.00;101520.94;4946172;28;20583;-71
2021/03/09 00:14:21;;;;;;;82.80;32.90;;;;;;;5.12;100.00;101523.19;4946743;28;20191;-71
2021/03/09 00:16:47;;;;;;;75.50;31.75;;;;;;;5.20;100.00;101517.66;4946180;28;20050;-70
2021/03/09 00:19:12;;;;;;;83.63;33.50;;;;;;;5.11;100.00;101517.94;4943744;28;20028;-71
2021/03/09 00:21:38;;;;;;;86.68;34.22;;;;;;;5.19;100.00;101515.91;4945294;28;20166;-71
2021/03/09 00:24:03;;;;;;;84.55;35.90;;;;;;;5.20;100.00;101520.31;4911585;29;20046;-71
2021/03/09 00:26:29;;;;;;;81.43;34.40;;;;;;;5.25;100.00;101519.25;4946712;28;20031;-71
2021/03/09 00:28:54;;;;;;;92.57;32.45;;;;;;;5.22;100.00;101521.16;4944211;28;20039;-71
2021/03/09 00:31:20;;;;;;;85.13;33.33;;;;;;;5.22;100.00;101515.81;4945094;28;20264;-71
2021/03/09 00:33:45;;;;;;;86.22;33.00;;;;;;;5.18;100.00;101514.19;4945810;28;20035;-71
2021/03/09 00:36:10;;;;;;;75.03;30.90;;;;;;;5.20;100.00;101507.88;4948210;28;20229;-71
2021/03/09 00:38:36;;;;;;;73.95;30.52;;;;;;;5.19;100.00;101511.47;4945425;29;20027;-71
2021/03/09 00:41:02;;;;;;;83.07;32.80;;;;;;;5.13;100.00;101508.09;4915786;29;20086;-71
2021/03/09 00:43:27;;;;;;;80.30;31.83;;;;;;;5.11;100.00;101513.50;4930682;28;20490;-71
2021/03/09 00:45:52;;;;;;;77.85;30.33;;;;;;;5.19;100.00;101510.59;4947805;29;20501;-71
2021/03/09 00:48:18;;;;;;;77.78;31.17;;;;;;;5.15;100.00;101503.63;4928330;29;20058;-71
2021/03/09 00:50:43;;;;;;;70.40;29.50;;;;;;;5.13;100.00;101505.44;4932244;29;20096;-71
2021/03/09 00:53:09;;;;;;;75.38;31.13;;;;;;;5.08;100.00;101507.38;4950593;28;20521;-71
2021/03/09 00:55:34;;;;;;;72.15;29.48;;;;;;;5.02;100.00;101502.22;4953951;28;20370;-71
2021/03/09 00:58:00;;;;;;;74.78;31.25;;;;;;;5.01;100.00;101505.78;4934829;29;20074;-71
2021/03/09 01:00:28;;;;;;;75.00;30.92;;;;;;;5.06;100.00;101501.25;4951266;28;20397;-71
2021/03/09 01:02:54;;;;;;;80.75;32.63;;;;;;;5.06;100.00;101504.75;4950036;28;20093;-70
2021/03/09 01:05:21;;;;;;;81.78;31.10;;;;;;;4.98;100.00;101506.78;4950831;28;20039;-70
2021/03/09 01:07:47;;;;;;;76.25;30.85;;;;;;;4.98;100.00;101509.44;4915479;29;20023;-71
2021/03/09 01:10:14;;;;;;;79.82;30.95;;;;;;;4.97;100.00;101504.16;4934321;28;20046;-71
2021/03/09 01:12:39;;;;;;;80.53;30.75;;;;;;;4.95;100.00;101500.66;4940937;29;20170;-71
2021/03/09 01:15:06;;;;;;;82.40;32.65;;;;;;;4.92;100.00;101501.63;4952987;28;20130;-71
2021/03/09 01:17:32;;;;;;;79.40;32.55;;;;;;;5.00;100.00;101498.75;4952408;28;20613;-71
2021/03/09 01:19:57;;;;;;;83.68;33.22;;;;;;;4.94;100.00;101490.94;4929662;28;20046;-71
2021/03/09 01:22:23;;;;;;;76.95;31.23;;;;;;;5.07;100.00;101500.28;4950727;28;20027;-70
2021/03/09 01:24:48;;;;;;;77.20;30.33;;;;;;;4.96;100.00;101491.75;4950852;28;20027;-72
2021/03/09 01:27:15;;;;;;;81.40;30.65;;;;;;;4.87;100.00;101482.28;4921651;28;20071;-71
2021/03/09 01:29:40;;;;;;;72.35;29.85;;;;;;;4.86;100.00;101486.72;4950623;28;20043;-71
2021/03/09 01:32:06;;;;;;;82.90;31.23;;;;;;;4.87;100.00;101485.81;4951702;28;20035;-71
2021/03/09 01:34:31;;;;;;;82.60;30.48;;;;;;;4.85;100.00;101489.41;4951419;28;20082;-71
2021/03/09 01:36:57;;;;;;;74.90;30.70;;;;;;;4.83;100.00;101481.47;4953235;28;20023;-72
2021/03/09 01:39:23;;;;;;;75.72;29.50;;;;;;;4.85;100.00;101490.28;4932372;28;20035;-71
2021/03/09 01:41:49;;;;;;;79.97;31.13;;;;;;;4.85;100.00;101477.00;4948296;29;20031;-71
2021/03/09 01:44:14;;;;;;;80.65;31.23;;;;;;;4.84;100.00;101477.91;4952584;28;20038;-71
2021/03/09 01:46:45;;;;;;;83.22;31.55;;;;;;;4.84;100.00;101482.34;4931464;28;20039;-71
2021/03/09 01:49:13;;;;;;;83.00;30.70;;;;;;;4.84;100.00;101477.03;4941027;28;20540;-71
2021/03/09 01:51:39;;;;;;;77.88;30.75;;;;;;;4.83;100.00;101470.84;4933205;28;20031;-71
2021/03/09 01:54:05;;;;;;;78.00;29.00;;;;;;;4.83;100.00;101465.50;4932511;28;20456;-71
2021/03/09 01:56:30;;;;;;;74.68;29.83;;;;;;;4.84;100.00;101461.94;4952047;28;20046;-71
2021/03/09 01:58:58;;;;;;;81.20;30.42;;;;;;;4.83;100.00;101464.63;4948639;28;20034;-71
2021/03/09 02:01:23;;;;;;;73.82;30.70;;;;;;;4.83;100.00;101460.19;4939368;28;20043;-71
2021/03/09 02:03:50;;;;;;;84.50;30.73;;;;;;;4.82;100.00;101447.81;4947845;28;20038;-71
2021/03/09 02:06:16;;;;;;;78.57;29.63;;;;;;;4.83;100.00;101449.56;4949866;28;20085;-72
2021/03/09 02:08:44;;;;;;;82.60;32.08;;;;;;;4.82;100.00;101447.81;4933294;29;20035;-71
2021/03/09 02:11:31;;;;;;;77.13;30.08;;;;;;;4.82;100.00;101445.16;4954505;28;20024;-71
2021/03/09 02:14:06;;;;;;;80.97;30.70;;;;;;;4.84;100.00;101435.34;4933430;29;20519;-71
2021/03/09 02:16:46;;;;;;;85.32;31.33;;;;;;;4.82;100.00;101429.19;4950816;28;20054;-72
2021/03/09 02:19:37;;;;;;;91.22;32.72;;;;;;;4.81;100.00;101434.56;4933745;29;20029;-72
2021/03/09 02:22:11;;;;;;;86.43;32.83;;;;;;;4.77;100.00;101428.44;4952552;28;20030;-72
2021/03/09 02:24:36;;;;;;;82.43;31.85;;;;;;;4.76;100.00;101420.50;4949155;28;20035;-72
2021/03/09 02:27:56;;;;;;;83.32;32.88;;;;;;;4.75;100.00;101411.66;4953370;28;20544;-72
2021/03/09 02:30:26;;;;;;;83.70;32.72;;;;;;;4.74;100.00;101423.25;4927957;29;20047;-72
2021/03/09 02:33:12;;;;;;;95.15;35.40;;;;;;;4.73;100.00;101416.16;4929538;28;20492;-72
2021/03/09 02:35:42;;;;;;;95.80;33.83;;;;;;;4.73;100.00;101416.16;4948205;28;20062;-72
2021/03/09 02:38:11;;;;;;;95.03;34.08;;;;;;;4.71;100.00;101407.34;4949245;28;20680;-71
2021/03/09 02:40:38;;;;;;;97.80;34.90;;;;;;;4.75;100.00;101403.69;4949848;28;20043;-71
2021/03/09 02:43:14;;;;;;;100.72;35.10;;;;;;;4.71;100.00;101402.03;4947629;28;20122;-71
2021/03/09 02:45:40;;;;;;;89.28;34.33;;;;;;;4.71;100.00;101402.03;4931686;29;20275;-71
2021/03/09 02:48:08;;;;;;;91.00;35.38;;;;;;;4.68;100.00;101404.81;4954145;28;20167;-71
2021/03/09 02:50:34;;;;;;;98.72;36.03;;;;;;;4.67;100.00;101400.41;4949019;28;20118;-71
2021/03/09 02:53:05;;;;;;;98.00;36.92;;;;;;;4.66;100.00;101398.66;4933289;29;20114;-71
2021/03/09 02:55:32;;;;;;;99.25;37.55;;;;;;;4.68;100.00;101391.50;4921265;29;20059;-71
2021/03/09 02:57:59;;;;;;;97.10;36.65;;;;;;;4.65;100.00;101391.59;4947154;28;20054;-71
2021/03/09 03:00:25;;;;;;;92.93;37.33;;;;;;;4.70;100.00;101394.09;4948452;29;20117;-71
2021/03/09 03:02:51;;;;;;;101.88;38.85;;;;;;;4.69;100.00;101393.22;4943897;28;20693;-71
2021/03/09 03:05:18;;;;;;;100.18;37.83;;;;;;;4.69;100.00;101387.91;4951988;28;20046;-71
2021/03/09 03:07:44;;;;;;;98.25;36.25;;;;;;;4.66;100.00;101388.00;4930237;29;20023;-71
2021/03/09 03:10:17;;;;;;;102.25;39.80;;;;;;;4.75;100.00;101377.09;4949517;28;20027;-71
2021/03/09 03:12:45;;;;;;;102.22;37.75;;;;;;;4.71;100.00;101379.88;4950085;28;20063;-71
2021/03/09 03:15:12;;;;;;;106.75;42.25;;;;;;;4.63;100.00;101380.09;4947969;28;20039;-71
2021/03/09 03:17:40;;;;;;;107.03;39.58;;;;;;;4.64;100.00;101376.53;4948572;28;20466;-71
2021/03/09 03:20:09;;;;;;;111.05;41.55;;;;;;;4.69;100.00;101377.28;4930023;28;20735;-71
2021/03/09 03:22:39;;;;;;;109.75;42.63;;;;;;;4.62;100.00;101381.06;4929204;28;20509;-71
2021/03/09 03:25:06;;;;;;;109.57;39.58;;;;;;;4.73;100.00;101378.94;4935385;29;20042;-71
2021/03/09 03:27:34;;;;;;;108.03;41.55;;;;;;;4.63;100.00;101372.13;4948908;28;20045;-71
2021/03/09 03:29:59;;;;;;;114.53;40.75;;;;;;;4.62;100.00;101381.06;4947998;29;20043;-71
2021/03/09 03:32:25;;;;;;;106.65;43.70;;;;;;;4.67;100.00;101365.81;4949713;28;20042;-71
2021/03/09 03:34:50;;;;;;;110.50;42.28;;;;;;;4.65;100.00;101375.63;4948675;28;20031;-71
2021/03/09 03:37:16;;;;;;;118.07;43.72;;;;;;;4.66;100.00;101366.75;4930079;29;20459;-71
2021/03/09 03:39:42;;;;;;;115.85;43.72;;;;;;;4.60;100.00;101360.72;4948393;28;20501;-71
2021/03/09 03:42:08;;;;;;;118.30;43.75;;;;;;;4.56;100.00;101357.31;4947824;28;20063;-71
2021/03/09 03:44:34;;;;;;;106.18;42.63;;;;;;;4.59;100.00;101365.19;4915127;29;20286;-71
2021/03/09 03:47:00;;;;;;;114.88;43.50;;;;;;;4.51;100.00;101361.84;4949502;28;20697;-71
2021/03/09 03:49:25;;;;;;;111.80;44.00;;;;;;;4.54;100.00;101372.41;4948007;28;20082;-71
2021/03/09 03:51:58;;;;;;;121.05;44.30;;;;;;;4.50;100.00;101365.47;4933950;29;20039;-71
2021/03/09 03:54:28;;;;;;;;;;;;;;;4.60;100.00;101358.06;4945903;28;20031;-71
2021/03/09 03:57:03;;;;;;;154.43;54.45;;;;;;;4.53;100.00;101353.84;4947695;28;20028;-71
2021/03/09 03:59:38;;;;;;;128.32;47.28;;;;;;;4.66;100.00;101353.44;4930480;29;20035;-72
2021/03/09 04:02:06;;;;;;;128.15;51.55;;;;;;;4.54;100.00;101351.16;4950945;28;20028;-71
2021/03/09 04:04:33;;;;;;;119.72;45.05;;;;;;;4.59;100.00;101353.66;4949234;28;20046;-71
2021/03/09 04:06:59;;;;;;;109.90;42.60;;;;;;;4.45;100.00;101352.28;4947201;29;20106;-71
2021/03/09 04:09:25;;;;;;;111.50;43.28;;;;;;;4.63;100.00;101350.03;4948928;28;20035;-71
2021/03/09 04:11:52;;;;;;;109.35;42.20;;;;;;;4.60;100.00;101340.34;4945968;28;20695;-71
2021/03/09 04:14:18;;;;;;;115.47;42.20;;;;;;;4.43;100.00;101348.81;4946132;28;20035;-71
2021/03/09 04:16:50;;;;;;;130.10;50.13;;;;;;;4.44;100.00;101341.72;4930634;29;20038;-71
2021/03/09 04:19:17;;;;;;;118.82;48.15;;;;;;;4.53;100.00;101344.09;4945406;28;20063;-71
2021/03/09 04:21:43;;;;;;;112.55;44.63;;;;;;;4.66;100.00;101337.50;4947733;29;20094;-71
2021/03/09 04:24:13;;;;;;;121.40;47.00;;;;;;;4.54;100.00;101339.66;4948749;28;20031;-71
2021/03/09 04:26:41;;;;;;;125.78;52.33;;;;;;;4.45;100.00;101338.13;4948768;28;20109;-71
2021/03/09 04:29:09;;;;;;;127.78;50.70;;;;;;;4.49;100.00;101337.13;4947192;28;20114;-71
2021/03/09 04:31:34;;;;;;;127.82;50.92;;;;;;;4.55;100.00;101336.06;4951026;28;20043;-72
2021/03/09 04:34:00;;;;;;;119.57;45.08;;;;;;;4.44;100.00;101329.25;4951110;29;20482;-71
2021/03/09 04:36:26;;;;;;;128.02;50.00;;;;;;;4.40;100.00;101326.75;4935437;28;20413;-71
2021/03/09 04:38:53;;;;;;;126.43;49.33;;;;;;;4.40;100.00;101326.75;4950846;29;20027;-71
2021/03/09 04:41:18;;;;;;;125.53;47.38;;;;;;;4.35;100.00;101331.34;4953715;28;20436;-72
2021/03/09 04:43:44;;;;;;;126.90;47.25;;;;;;;4.43;100.00;101327.56;4949996;28;20035;-71
2021/03/09 04:46:10;;;;;;;125.65;47.42;;;;;;;4.45;100.00;101325.69;4935288;28;20049;-71
2021/03/09 04:48:39;;;;;;;121.82;48.60;;;;;;;4.47;100.00;101325.66;4949837;28;20114;-71
2021/03/09 04:51:07;;;;;;;127.45;48.83;;;;;;;4.34;100.00;101314.50;4952031;28;20049;-71
2021/03/09 04:53:34;;;;;;;129.50;48.83;;;;;;;4.31;100.00;101317.28;4950168;29;20035;-71
2021/03/09 04:55:59;;;;;;;129.60;49.08;;;;;;;4.37;100.00;101321.53;4951954;28;20405;-71
2021/03/09 04:58:26;;;;;;;129.95;48.80;;;;;;;4.46;100.00;101318.59;4951704;28;20031;-71
2021/03/09 05:00:52;;;;;;;125.63;49.45;;;;;;;4.51;100.00;101308.69;4947714;28;20044;-71
2021/03/09 05:03:18;;;;;;;120.00;48.40;;;;;;;4.38;100.00;101310.00;4934931;29;20192;-72
2021/03/09 05:05:43;;;;;;;123.13;46.65;;;;;;;4.39;100.00;101309.06;4949209;28;20053;-71
2021/03/09 05:08:09;;;;;;;127.97;48.47;;;;;;;4.29;100.00;101308.47;4946684;29;20498;-71
2021/03/09 05:10:34;;;;;;;118.60;46.78;;;;;;;4.34;100.00;101300.34;4951014;28;20038;-71
2021/03/09 05:13:00;;;;;;;117.35;45.33;;;;;;;4.45;100.00;101303.56;4951161;28;20447;-71
2021/03/09 05:15:27;;;;;;;114.05;44.05;;;;;;;4.35;100.00;101296.78;4945159;28;20509;-71
2021/03/09 05:17:53;;;;;;;117.97;45.70;;;;;;;4.29;100.00;101289.00;4931932;29;20042;-71
2021/03/09 05:20:19;;;;;;;108.60;42.80;;;;;;;4.27;100.00;101296.13;4950258;28;20236;-71
2021/03/09 05:22:44;;;;;;;104.75;42.22;;;;;;;4.36;100.00;101293.22;4917967;29;20031;-72
2021/03/09 05:25:12;;;;;;;105.32;43.28;;;;;;;4.42;100.00;101293.03;4950601;28;20450;-71
2021/03/09 05:27:40;;;;;;;102.80;41.17;;;;;;;4.29;100.00;101294.31;4950544;28;20470;-71
2021/03/09 05:30:07;;;;;;;104.20;41.15;;;;;;;4.27;100.00;101291.69;4931190;29;20465;-71
2021/03/09 05:32:33;;;;;;;99.07;40.80;;;;;;;4.31;100.00;101287.16;4947806;28;20394;-71
2021/03/09 05:34:58;;;;;;;100.15;42.45;;;;;;;4.36;100.00;101282.59;4949066;28;20035;-71
2021/03/09 05:37:24;;;;;;;98.35;40.42;;;;;;;4.35;100.00;101287.03;4949847;28;20582;-72
2021/03/09 05:39:49;;;;;;;101.82;42.65;;;;;;;4.31;100.00;101285.38;4914600;29;20023;-71
2021/03/09 05:42:16;;;;;;;97.00;41.15;;;;;;;4.30;100.00;101288.09;4948076;28;20039;-71
2021/03/09 05:44:42;;;;;;;98.15;40.95;;;;;;;4.33;100.00;101287.97;4947784;28;20031;-71
2021/03/09 05:47:07;;;;;;;101.25;41.28;;;;;;;4.30;100.00;101288.09;4951970;28;20514;-71
2021/03/09 05:49:33;;;;;;;109.57;41.65;;;;;;;4.20;100.00;101291.91;4947422;28;20078;-71
2021/03/09 05:51:59;;;;;;;99.55;41.25;;;;;;;4.20;100.00;101289.25;4946415;28;20103;-71
2021/03/09 05:54:25;;;;;;;111.15;43.20;;;;;;;4.28;100.00;101282.81;4929532;28;20085;-71
2021/03/09 05:56:50;;;;;;;103.75;43.30;;;;;;;4.12;100.00;101283.31;4929250;29;20036;-71
2021/03/09 05:59:16;;;;;;;108.10;43.78;;;;;;;4.19;100.00;101291.06;4946032;29;20032;-71
2021/03/09 06:01:42;;;;;;;112.97;44.30;;;;;;;4.20;100.00;101283.94;4951168;28;20039;-71
2021/03/09 06:04:07;;;;;;;100.43;41.50;;;;;;;4.15;100.00;101286.72;4931658;28;20035;-71
2021/03/09 06:06:33;;;;;;;111.32;44.13;;;;;;;4.20;100.00;101286.59;4933102;29;20356;-71
2021/03/09 06:08:59;;;;;;;104.30;42.58;;;;;;;4.18;100.00;101283.13;4948006;28;20040;-71
2021/03/09 06:11:25;;;;;;;105.13;43.28;;;;;;;4.22;100.00;101280.34;4948774;28;20097;-71
2021/03/09 06:13:50;;;;;;;110.38;43.28;;;;;;;4.14;100.00;101284.13;4951155;28;20043;-71
2021/03/09 06:16:16;;;;;;;107.25;43.70;;;;;;;4.20;100.00;101275.97;4949666;28;20046;-73
2021/03/09 06:19:10;;;;;;;106.68;42.13;;;;;;;4.16;100.00;101282.28;4934681;28;20046;-73
2021/03/09 06:21:36;;;;;;;106.65;39.40;;;;;;;4.22;100.00;101274.16;4933348;29;20143;-74
2021/03/09 06:24:18;;;;;;;115.25;45.22;;;;;;;4.27;100.00;101273.09;4919551;29;20167;-73
2021/03/09 06:26:44;;;;;;;98.97;42.77;;;;;;;4.22;100.00;101271.47;4935807;29;20043;-73
2021/03/09 06:29:17;;;;;;;105.20;43.13;;;;;;;4.11;100.00;101268.28;4924880;29;20290;-73
2021/03/09 06:31:48;;;;;;;;;;;;;;;4.20;100.00;101260.03;4958282;28;20043;-73
2021/03/09 06:34:22;;;;;;;112.13;41.25;;;;;;;4.19;100.00;101260.97;4945954;28;19922;-73
2021/03/09 06:37:03;;;;;;;104.47;42.05;;;;;;;4.25;100.00;101256.34;4939623;29;20106;-73
2021/03/09 06:39:45;;;;;;;108.15;45.35;;;;;;;4.16;100.00;101258.38;4954594;28;20031;-73
2021/03/09 06:42:12;;;;;;;135.02;50.67;;;;;;;4.18;100.00;101259.22;4953664;28;20039;-73
2021/03/09 06:44:38;;;;;;;116.90;50.13;;;;;;;4.17;100.00;101254.81;4956257;28;20113;-73
2021/03/09 06:47:03;;;;;;;114.78;45.92;;;;;;;4.16;100.00;101263.69;4950716;29;20042;-72
2021/03/09 06:49:29;;;;;;;115.82;47.00;;;;;;;4.23;100.00;101257.28;4946916;28;20039;-73
2021/03/09 06:52:12;;;;;;;115.20;50.20;;;;;;;4.20;100.00;101260.03;4917597;29;20122;-71
2021/03/09 06:54:49;;;;;;;110.25;43.60;;;;;;;4.14;100.00;101262.84;4949077;28;20568;-71
2021/03/09 06:57:15;;;;;;;113.78;45.95;;;;;;;4.11;100.00;101262.97;4948954;29;20031;-71
2021/03/09 06:59:48;;;;;;;101.78;44.78;;;;;;;4.06;100.00;101266.63;4950911;28;20138;-71
2021/03/09 07:02:17;;;;;;;106.38;43.13;;;;;;;4.17;100.00;101271.63;4948628;28;20050;-71
2021/03/09 07:04:48;;;;;;;106.72;43.67;;;;;;;4.19;100.00;101269.81;4948014;28;20391;-71
2021/03/09 07:07:38;;;;;;;101.15;42.13;;;;;;;4.16;100.00;101279.63;4935986;29;20094;-71
2021/03/09 07:10:06;;;;;;;94.38;41.20;;;;;;;4.23;100.00;101271.44;4908212;29;20027;-71
2021/03/09 07:12:32;;;;;;;102.15;41.45;;;;;;;4.20;100.00;101268.88;4948596;29;20065;-71
2021/03/09 07:14:58;;;;;;;99.78;41.90;;;;;;;4.23;100.00;101274.09;4946534;28;20039;-71
2021/03/09 07:17:26;;;;;;;102.30;40.55;;;;;;;4.24;100.00;101273.19;4930803;29;20039;-70
2021/03/09 07:19:53;;;;;;;94.72;40.08;;;;;;;4.25;100.00;101274.06;4926442;29;20066;-71
2021/03/09 07:22:21;;;;;;;95.25;40.25;;;;;;;4.23;100.00;101275.88;4949079;29;20393;-71
2021/03/09 07:24:59;;;;;;;95.75;39.80;;;;;;;4.15;100.00;101285.84;4946944;28;20039;-71
2021/03/09 07:27:46;;;;;;;92.53;39.33;;;;;;;4.17;100.00;101281.38;4948270;28;20059;-71
2021/03/09 07:30:14;;;;;;;95.78;39.15;;;;;;;4.27;100.00;101282.84;4937197;29;20047;-71
2021/03/09 07:32:43;;;;;;;100.55;40.17;;;;;;;4.30;100.00;101280.13;4948167;28;20031;-71
2021/03/09 07:35:09;;;;;;;98.30;39.35;;;;;;;4.26;100.00;101281.13;4948512;28;20031;-71
2021/03/09 07:37:37;;;;;;;91.00;39.03;;;;;;;4.19;100.00;101290.19;4947639;28;20031;-71
2021/03/09 07:40:04;;;;;;;89.53;37.15;;;;;;;4.26;100.00;101281.13;4947592;29;20037;-72
2021/03/09 07:42:30;;;;;;;89.28;37.08;;;;;;;4.22;100.00;101283.00;4935977;29;20348;-71
2021/03/09 07:44:55;;;;;;;89.32;37.17;;;;;;;4.22;100.00;101290.09;4929340;29;20034;-71
2021/03/09 07:47:21;;;;;;;82.22;35.70;;;;;;;4.30;100.00;101273.00;4948488;28;20613;-71
2021/03/09 07:49:47;;;;;;;80.50;34.40;;;;;;;4.31;100.00;101287.16;4947023;29;20043;-71
2021/03/09 07:52:25;;;;;;;76.50;34.45;;;;;;;4.21;100.00;101289.22;4947223;28;20066;-71
2021/03/09 07:55:16;;;;;;;82.80;36.40;;;;;;;4.37;100.00;101287.00;4948146;29;20110;-71
2021/03/09 07:57:42;;;;;;;84.57;35.22;;;;;;;4.32;100.00;101283.59;4930301;29;20117;-71
2021/03/09 08:00:13;;;;;;;76.97;34.15;;;;;;;4.30;100.00;101280.13;4946058;28;20086;-71
2021/03/09 08:02:43;;;;;;;82.10;35.38;;;;;;;4.28;100.00;101279.28;4952097;28;20043;-73
2021/03/09 08:05:10;;;;;;;79.68;35.45;;;;;;;4.26;100.00;101281.97;4928424;29;20049;-73
2021/03/09 08:07:56;;;;;;;80.78;36.08;;;;;;;4.28;100.00;101284.59;4937760;29;20046;-72
2021/03/09 08:10:39;;;;;;;76.57;35.47;;;;;;;4.31;100.00;101279.19;4937434;29;20043;-73
2021/03/09 08:13:07;;;;;;;81.20;35.67;;;;;;;4.32;100.00;101273.81;4933606;28;20110;-73
2021/03/09 08:15:38;;;;;;;82.97;35.40;;;;;;;4.42;100.00;101275.31;4937148;29;20043;-73
2021/03/09 08:18:21;;;;;;;83.43;35.95;;;;;;;4.38;100.00;101264.81;4935033;28;20035;-73
2021/03/09 08:20:58;;;;;;;81.97;35.28;;;;;;;4.21;100.00;101272.41;4954166;28;20446;-74
2021/03/09 08:23:35;;;;;;;83.25;34.95;;;;;;;4.24;100.00;101267.00;4937929;29;20043;-73
2021/03/09 08:26:04;;;;;;;81.28;36.03;;;;;;;4.29;100.00;101267.75;4936309;28;20031;-73
2021/03/09 08:28:37;;;;;;;94.45;36.92;;;;;;;4.20;100.00;101266.22;4937723;28;20244;-74
2021/03/09 08:31:09;;;;;;;89.35;35.53;;;;;;;4.27;100.00;101262.47;4959902;28;20078;-73
2021/03/09 08:33:56;;;;;;;91.25;38.65;;;;;;;4.28;100.00;101273.97;4953637;29;20480;-73
2021/03/09 08:36:24;;;;;;;83.90;35.58;;;;;;;4.20;100.00;101263.56;4938757;29;20043;-73
2021/03/09 08:39:08;;;;;;;81.35;36.30;;;;;;;4.29;100.00;101265.94;4948832;29;20039;-74
2021/03/09 08:41:43;;;;;;;80.85;34.72;;;;;;;4.33;100.00;101256.97;4955256;29;20054;-73
2021/03/09 08:44:17;;;;;;;80.68;35.50;;;;;;;4.38;100.00;101265.66;4954794;28;20062;-73
2021/03/09 08:47:00;;;;;;;81.95;33.72;;;;;;;4.33;100.00;101264.06;4960730;28;20043;-73
2021/03/09 08:49:36;;;;;;;77.50;33.35;;;;;;;4.36;100.00;101266.63;4932701;29;20038;-73
2021/03/09 08:52:11;;;;;;;78.68;33.42;;;;;;;4.32;100.00;101263.19;4952362;28;20043;-73
2021/03/09 08:54:48;;;;;;;73.53;32.55;;;;;;;4.43;100.00;101257.56;4935843;29;20035;-73
2021/03/09 08:57:16;;;;;;;87.65;36.53;;;;;;;4.43;100.00;101257.56;4937700;29;20050;-73
2021/03/09 08:59:43;;;;;;;79.63;34.35;;;;;;;4.40;100.00;101252.34;4950009;28;20165;-73
2021/03/09 09:02:14;;;;;;;78.65;34.17;;;;;;;4.46;100.00;101254.81;4954478;29;20038;-73
2021/03/09 09:04:56;;;;;;;84.85;36.15;;;;;;;4.53;100.00;101259.00;4920257;29;20039;-72
2021/03/09 09:07:25;;;;;;;81.35;35.83;;;;;;;4.52;100.00;101262.59;4955303;28;20062;-73
2021/03/09 09:09:53;;;;;;;85.22;36.25;;;;;;;4.51;100.00;101254.66;4950297;28;20126;-73
2021/03/09 09:12:37;;;;;;;91.13;36.90;;;;;;;4.54;100.00;101255.44;4939097;29;20110;-73
2021/03/09 09:15:05;;;;;;;;;;;;;;;4.55;100.00;101251.00;4949813;28;20078;-73
2021/03/09 09:17:31;;;;;;;89.20;38.17;;;;;;;4.58;100.00;101245.56;4954149;29;19965;-73
2021/03/09 09:19:58;;;;;;;98.35;40.53;;;;;;;4.58;100.00;101241.13;4934553;29;20449;-73
2021/03/09 09:22:25;;;;;;;98.05;39.97;;;;;;;4.65;100.00;101248.00;4952541;29;20039;-73
2021/03/09 09:25:05;;;;;;;96.50;41.30;;;;;;;4.70;100.00;101240.75;4951171;28;20498;-73
2021/03/09 09:27:43;;;;;;;95.70;41.42;;;;;;;4.74;100.00;101237.09;4952628;28;20691;-73
2021/03/09 09:30:10;;;;;;;96.72;40.55;;;;;;;4.66;100.00;101249.75;4936615;29;20035;-73
2021/03/09 09:33:05;;;;;;;95.95;42.53;;;;;;;4.77;100.00;101246.75;4953593;29;20324;-73
2021/03/09 09:35:32;;;;;;;102.47;42.10;;;;;;;4.86;100.00;101242.00;4928773;29;20047;-73
2021/03/09 09:38:05;;;;;;;99.10;40.38;;;;;;;4.98;100.00;101246.06;4935847;29;20548;-73
2021/03/09 09:40:38;;;;;;;97.22;40.55;;;;;;;4.98;100.00;101245.19;4934870;29;20405;-73
2021/03/09 09:43:07;;;;;;;99.53;43.70;;;;;;;4.99;100.00;101247.78;4934194;29;20050;-73
2021/03/09 09:45:38;;;;;;;98.47;40.50;;;;;;;5.10;100.00;101245.66;4951006;28;20148;-73
2021/03/09 09:48:05;;;;;;;96.20;41.88;;;;;;;5.19;100.00;101250.66;4919032;29;20121;-73
2021/03/09 09:50:31;;;;;;;93.75;39.05;;;;;;;5.20;100.00;101243.53;4921782;29;20019;-73
2021/03/09 09:53:02;;;;;;;89.22;37.58;;;;;;;5.28;100.00;101238.81;4939626;29;20422;-73
2021/03/09 09:55:30;;;;;;;85.22;36.97;;;;;;;5.14;100.00;101233.09;4935319;29;20154;-73
2021/03/09 09:57:57;;;;;;;88.95;36.38;;;;;;;5.18;100.00;101240.06;4919314;29;20031;-73
2021/03/09 10:00:25;;;;;;;86.78;36.95;;;;;;;5.26;100.00;101241.53;4933770;29;20062;-73
2021/03/09 10:03:06;;;;;;;87.32;36.45;;;;;;;5.23;100.00;101248.75;4935955;29;20373;-73
2021/03/09 10:05:32;;;;;;;78.43;35.58;;;;;;;5.27;100.00;101247.72;4952572;28;20043;-73
2021/03/09 10:07:57;;;;;;;79.15;35.35;;;;;;;5.26;100.00;101235.34;4947501;29;20019;-73
2021/03/09 10:10:23;;;;;;;86.70;37.22;;;;;;;5.21;100.00;101242.63;4919902;28;20486;-73
2021/03/09 10:12:50;;;;;;;88.30;37.40;;;;;;;5.25;100.00;101245.13;4936659;29;20049;-73
2021/03/09 10:15:16;;;;;;;89.38;36.70;;;;;;;5.30;100.00;101242.31;4935730;28;20462;-73
2021/03/09 10:17:41;;;;;;;106.03;40.83;;;;;;;5.31;100.00;101244.03;4923047;29;20039;-73
2021/03/09 10:20:27;;;;;;;95.80;38.90;;;;;;;5.36;100.00;101246.56;4952871;28;20118;-73
2021/03/09 10:23:03;;;;;;;100.30;39.88;;;;;;;5.42;100.00;101241.91;4953290;28;20039;-73
2021/03/09 10:25:29;;;;;;;90.88;39.22;;;;;;;5.36;100.00;101243.91;4953504;29;20045;-73
2021/03/09 10:28:04;;;;;;;108.13;41.08;;;;;;;5.48;100.00;101240.81;4954188;29;20031;-73
2021/03/09 10:30:42;;;;;;;112.70;42.22;;;;;;;5.49;100.00;101243.38;4934764;29;20510;-73
2021/03/09 10:33:09;;;;;;;110.95;43.55;;;;;;;5.53;100.00;101238.84;4920828;28;20077;-73
2021/03/09 10:35:55;;;;;;;116.55;43.88;;;;;;;5.52;100.00;101240.63;4943759;28;20031;-73
2021/03/09 10:38:22;;;;;;;118.32;43.90;;;;;;;5.50;100.00;101245.13;4939729;29;20031;-73
2021/03/09 10:40:47;;;;;;;121.78;45.80;;;;;;;5.58;100.00;101248.41;4933195;29;20348;-73
2021/03/09 10:43:13;;;;;;;117.43;43.25;;;;;;;5.57;100.00;101238.69;4940819;29;20035;-73
2021/03/09 10:45:45;;;;;;;113.45;44.40;;;;;;;5.60;100.00;101246.56;5138452;27;20349;-72
2021/03/09 10:48:10;;;;;;;116.22;45.45;;;;;;;5.64;100.00;101242.88;5125617;27;20055;-72
2021/03/09 10:50:42;;;;;;;116.82;44.38;;;;;;;5.61;100.00;101237.66;5125971;27;20481;-72
2021/03/09 10:53:07;;;;;;;123.65;45.63;;;;;;;5.67;100.00;101237.44;5125440;27;20547;-72
2021/03/09 10:55:33;;;;;;;118.70;46.28;;;;;;;5.78;100.00;101244.16;5134539;27;20023;-73
2021/03/09 10:57:58;;;;;;;124.28;46.65;;;;;;;5.77;100.00;101231.78;5125868;27;20043;-74
2021/03/09 11:00:24;;;;;;;113.25;44.10;;;;;;;5.82;100.00;101235.13;5125030;27;20023;-74
2021/03/09 11:02:49;;;;;;;111.97;44.47;;;;;;;5.89;100.00;101236.69;5128067;27;20011;-74
2021/03/09 11:05:15;;;;;;;108.05;44.38;;;;;;;6.04;100.00;101231.66;5127709;27;20054;-73
2021/03/09 11:07:41;;;;;;;111.68;42.15;;;;;;;5.95;100.00;101245.31;5126311;27;20400;-74
2021/03/09 11:10:10;;;;;;;112.60;44.67;;;;;;;5.97;100.00;101234.63;5135975;27;20079;-74
2021/03/09 11:12:36;;;;;;;109.45;44.08;;;;;;;6.08;100.00;101233.28;5138286;27;20086;-74
2021/03/09 11:15:01;;;;;;;115.70;43.53;;;;;;;6.12;100.00;101231.34;5116788;27;20445;-73
2021/03/09 11:17:28;;;;;;;100.47;40.97;;;;;;;6.17;100.00;101233.88;5127531;27;20040;-73